Time;durP1;ratioP1;P1;durP2;ratioP2;P2;SDS_P1;SDS_P2;PMS_P1;PMS_P2;Temp;Humidity;BMP_temperature;BMP_pressure;BME280_temperature;BME280_humidity;BME280_pressure;Samples;Min_cycle;Max_cycle;Signal;HPM_P1;HPM_P2
2022/12/29 00:01:34;;;;;;;32.63;18.10;;;7.60;99.50;;;7.60;64.07;95872.91;4978107;28;20510;-54
2022/12/29 00:04:01;;;;;;;28.30;17.63;;;7.60;99.30;;;7.62;63.99;95867.56;4976756;28;20463;-57
2022/12/29 00:06:28;;;;;;;31.13;19.67;;;7.60;99.20;;;7.61;63.45;95866.72;4981887;28;20513;-57
2022/12/29 00:08:55;;;;;;;30.87;18.60;;;7.70;99.30;;;7.65;63.59;95872.59;4979853;28;20564;-57
2022/12/29 00:11:25;;;;;;;33.20;19.37;;;7.70;99.30;;;7.68;63.80;95864.56;4979396;28;20455;-55
2022/12/29 00:16:37;;;;;;;29.10;17.73;;;7.70;99.20;;;7.71;64.14;95869.59;4971388;28;20971;-56
2022/12/29 00:19:04;;;;;;;34.60;20.00;;;7.70;99.20;;;7.71;63.58;95872.22;4976781;28;20467;-57
2022/12/29 00:35:46;;;;;;;39.60;23.80;;;7.80;99.30;;;7.82;63.70;95895.97;4910330;29;21000;-57
2022/12/29 00:46:29;;;;;;;37.50;23.57;;;7.80;99.30;;;7.78;63.87;95898.88;4976455;28;20489;-55
2022/12/29 00:51:41;;;;;;;36.83;24.10;;;7.80;99.30;;;7.73;64.23;95896.56;4982036;28;20588;-54
2022/12/29 00:54:09;;;;;;;40.60;24.60;;;7.80;99.30;;;7.74;63.65;95897.38;4979602;28;20455;-54
2022/12/29 00:56:36;;;;;;;42.70;25.33;;;7.80;99.30;;;7.74;64.29;95902.63;4980167;28;20458;-55
2022/12/29 00:59:05;;;;;;;41.73;24.33;;;7.80;99.40;;;7.74;63.52;95907.84;4978186;28;20466;-57
2022/12/29 01:01:32;;;;;;;40.10;23.20;;;7.80;99.40;;;7.74;63.65;95905.22;4975735;28;20959;-58
2022/12/29 01:04:00;;;;;;;39.40;22.80;;;7.80;99.40;;;7.75;64.43;95904.31;4977778;28;20481;-58
2022/12/29 01:06:27;;;;;;;38.93;24.30;;;7.80;99.40;;;7.75;63.98;95891.22;4978097;28;20517;-57
2022/12/29 01:11:35;;;;;;;40.67;23.67;;;7.80;99.60;;;7.74;64.14;95892.97;4970939;28;20935;-54
2022/12/29 01:14:04;;;;;;;40.33;22.80;;;7.80;99.60;;;7.73;64.35;95899.16;4977090;28;20876;-57
2022/12/29 01:16:31;;;;;;;35.47;21.63;;;7.80;99.50;;;7.73;64.17;95891.31;4975984;28;20480;-57
2022/12/29 01:18:58;;;;;;;33.70;21.47;;;7.80;99.60;;;7.72;63.93;95887.00;4979004;28;20481;-56
2022/12/29 01:21:26;;;;;;;30.60;19.33;;;7.80;99.40;;;7.72;63.96;95884.38;4975998;28;20538;-55
2022/12/29 01:23:53;;;;;;;43.70;20.70;;;7.80;99.50;;;7.71;63.86;95886.16;4978202;28;20475;-58
2022/12/29 01:26:20;;;;;;;31.10;19.70;;;7.70;99.30;;;7.72;64.31;95879.97;4975806;28;20881;-57
2022/12/29 01:28:47;;;;;;;28.97;17.10;;;7.70;99.30;;;7.72;63.85;95879.97;4977077;28;20542;-57
2022/12/29 01:31:16;;;;;;;26.80;16.53;;;7.80;99.30;;;7.74;63.48;95887.72;4975428;28;20493;-54
2022/12/29 01:33:44;;;;;;;26.17;16.27;;;7.80;99.30;;;7.74;64.05;95877.25;4977212;28;20840;-57
2022/12/29 01:36:12;;;;;;;28.77;16.50;;;7.80;99.30;;;7.74;64.02;95872.03;4975568;28;20520;-57
2022/12/29 01:38:40;;;;;;;32.50;17.83;;;7.80;99.30;;;7.74;63.32;95872.03;4977469;28;20467;-58
2022/12/29 01:41:08;;;;;;;33.20;16.60;;;7.80;99.30;;;7.71;63.46;95859.97;4981700;28;20503;-57
2022/12/29 01:43:42;;;;;;;26.30;16.73;;;7.80;99.30;;;7.71;63.99;95861.75;4983524;28;20506;-52
2022/12/29 01:46:23;;;;;;;26.97;17.00;;;7.80;99.30;;;7.70;63.71;95863.53;4974737;28;20938;-57
2022/12/29 01:48:52;;;;;;;24.27;14.27;;;7.80;99.30;;;7.68;63.46;95854.94;4980946;28;20812;-54
2022/12/29 01:51:19;;;;;;;22.90;14.30;;;7.70;99.20;;;7.68;63.58;95859.31;4991191;28;20620;-57
2022/12/29 01:53:47;;;;;;;26.27;15.37;;;7.70;99.20;;;7.67;63.97;95860.28;4981461;28;20474;-55
2022/12/29 01:56:15;;;;;;;21.80;14.40;;;7.70;99.20;;;7.67;63.35;95860.28;4981121;28;20532;-57
2022/12/29 01:58:44;;;;;;;20.60;12.67;;;7.70;99.60;;;7.67;63.96;95857.66;4980463;28;20471;-57
2022/12/29 02:01:11;;;;;;;21.40;13.87;;;7.70;99.20;;;7.64;63.45;95857.84;4980995;28;20459;-57
2022/12/29 02:03:40;;;;;;;19.50;12.53;;;7.70;99.20;;;7.61;63.48;95850.19;4980050;28;20581;-58
2022/12/29 02:06:11;;;;;;;23.33;14.83;;;7.70;99.20;;;7.57;63.44;95846.91;4983932;28;20450;-57
2022/12/29 02:08:38;;;;;;;21.77;14.37;;;7.60;99.20;;;7.57;63.28;95848.69;4982222;28;20475;-58
2022/12/29 02:11:06;;;;;;;19.00;12.70;;;7.60;99.20;;;7.56;63.22;95850.47;4981836;28;20516;-57
2022/12/29 02:13:33;;;;;;;22.20;14.73;;;7.60;99.20;;;7.56;63.31;95845.25;4978363;28;20541;-57
2022/12/29 02:16:07;;;;;;;22.67;14.53;;;7.60;99.20;;;7.53;63.27;95848.88;4981629;28;20497;-57
2022/12/29 02:18:44;;;;;;;21.70;14.30;;;7.60;99.10;;;7.48;64.00;95845.72;4978695;28;21010;-57
2022/12/29 02:21:58;;;;;;;23.30;14.60;;;7.50;99.10;;;7.43;63.51;95844.34;4979962;28;20451;-55
2022/12/29 02:25:13;;;;;;;20.67;13.40;;;7.50;99.10;;;7.41;63.74;95844.44;4976817;28;20474;-56
2022/12/29 02:28:20;;;;;;;22.70;14.80;;;7.50;99.10;;;7.41;64.31;95841.81;4972821;28;20474;-55
2022/12/29 02:30:56;;;;;;;18.03;12.53;;;7.40;99.10;;;7.40;63.46;95847.97;4982498;28;20454;-55
2022/12/29 02:33:35;;;;;;;17.30;13.43;;;7.50;99.10;;;7.40;63.71;95850.59;4979546;28;20474;-54
2022/12/29 02:36:08;;;;;;;18.97;13.30;;;7.50;99.20;;;7.40;63.85;95845.34;4977341;28;20506;-57
2022/12/29 02:38:50;;;;;;;20.23;12.63;;;7.40;99.20;;;7.37;63.56;95848.16;4976070;28;21011;-57
2022/12/29 02:41:21;;;;;;;19.97;13.10;;;7.40;99.10;;;7.34;63.97;95848.34;4985068;28;20501;-57
2022/12/29 02:43:51;;;;;;;19.43;13.60;;;7.40;99.20;;;7.31;64.10;95849.41;4981791;28;20493;-55
2022/12/29 02:46:23;;;;;;;24.40;13.47;;;7.40;99.20;;;7.33;63.99;95852.75;4979811;28;20466;-55
2022/12/29 02:48:55;;;;;;;21.53;13.67;;;7.40;99.40;;;7.35;63.88;95844.81;4978630;28;20470;-57
2022/12/29 02:51:26;;;;;;;23.13;14.60;;;7.40;99.50;;;7.36;64.29;95852.56;4983434;28;20446;-54
2022/12/29 02:56:38;;;;;;;24.30;14.90;;;7.40;99.40;;;7.39;63.66;95838.47;4980320;28;20441;-56
2022/12/29 02:59:05;;;;;;;20.37;13.67;;;7.50;99.60;;;7.39;64.06;95838.47;4977303;28;20541;-57
2022/12/29 03:02:16;;;;;;;22.40;15.70;;;7.50;99.50;;;7.41;64.10;95839.19;4981876;28;20458;-57
2022/12/29 03:04:40;;;;;;;25.37;15.30;;;7.50;99.50;;;7.41;64.01;95827.91;4975572;28;20469;-57
2022/12/29 03:07:11;;;;;;;24.57;16.50;;;7.50;99.50;;;7.42;64.02;95832.16;4980949;28;20546;-55
2022/12/29 03:09:41;;;;;;;31.47;17.70;;;7.50;99.60;;;7.41;63.77;95823.50;4980158;28;20451;-58
2022/12/29 03:12:15;;;;;;;27.47;17.27;;;7.50;99.60;;;7.40;63.89;95832.28;4978191;28;20480;-55
2022/12/29 03:17:51;;;;;;;19.73;14.87;;;7.50;99.80;;;7.38;64.43;95823.69;4980034;28;20461;-55
2022/12/29 03:20:20;;;;;;;29.97;16.93;;;7.40;99.70;;;7.37;64.66;95816.75;4977882;28;20462;-53
2022/12/29 03:22:49;;;;;;;32.40;15.60;;;7.40;99.80;;;7.35;64.60;95808.16;4979865;28;20520;-60
2022/12/29 03:25:19;;;;;;;26.73;16.97;;;7.40;99.70;;;7.35;64.26;95816.03;4978689;28;20469;-54
2022/12/29 03:27:50;;;;;;;22.60;14.93;;;7.40;99.90;;;7.31;64.73;95818.00;4979553;28;20479;-57
2022/12/29 03:30:17;;;;;;;25.90;16.30;;;7.40;99.80;;;7.29;64.45;95813.78;4977709;28;20512;-55
2022/12/29 03:32:49;;;;;;;22.93;16.23;;;7.40;99.80;;;7.25;64.85;95825.38;4978792;28;20476;-56
2022/12/29 03:35:18;;;;;;;31.80;17.20;;;7.30;99.70;;;7.22;64.71;95818.59;4980354;28;20510;-55
2022/12/29 03:37:49;;;;;;;25.77;14.83;;;7.30;99.80;;;7.17;64.69;95818.00;4974803;28;20483;-55
2022/12/29 03:40:16;;;;;;;25.30;15.73;;;7.20;99.80;;;7.13;64.52;95825.22;4979380;28;20937;-55
2022/12/29 03:42:44;;;;;;;19.53;13.93;;;7.20;99.80;;;7.08;64.46;95829.03;4982317;28;20490;-58
2022/12/29 03:45:12;;;;;;;28.03;15.97;;;7.20;99.80;;;7.03;64.50;95824.09;4976924;28;20498;-57
2022/12/29 03:47:39;;;;;;;22.90;14.53;;;7.10;99.80;;;6.98;64.46;95831.38;4977920;28;20475;-55
2022/12/29 03:50:09;;;;;;;24.83;16.17;;;7.10;99.90;;;6.93;64.64;95834.28;4979381;28;20459;-57
2022/12/29 03:52:36;;;;;;;21.80;14.60;;;7.00;99.90;;;6.89;64.97;95843.25;4984984;28;20579;-54
2022/12/29 03:55:03;;;;;;;22.00;13.67;;;7.00;99.90;;;6.86;65.41;95842.59;4978405;28;20459;-56
2022/12/29 03:57:31;;;;;;;22.80;15.53;;;7.00;99.90;;;6.81;65.33;95846.31;4977090;28;21008;-54
2022/12/29 03:59:58;;;;;;;23.87;15.10;;;6.90;99.90;;;6.76;64.59;95843.16;4980557;28;20458;-53
2022/12/29 04:02:25;;;;;;;21.80;14.60;;;6.80;99.90;;;6.72;65.39;95849.50;4976996;28;20479;-58
2022/12/29 04:04:52;;;;;;;23.00;13.70;;;6.80;99.90;;;6.69;64.85;95856.69;4979581;28;20465;-57
2022/12/29 04:07:21;;;;;;;19.80;14.77;;;6.80;99.90;;;6.66;65.25;95851.63;4980650;28;20526;-57
2022/12/29 04:09:48;;;;;;;21.47;14.53;;;6.70;99.90;;;6.63;65.56;95847.41;4979163;28;20454;-57
2022/12/29 04:12:15;;;;;;;21.97;14.07;;;6.70;99.90;;;6.61;65.55;95844.06;4977108;28;20475;-55
2022/12/29 04:14:43;;;;;;;26.30;15.43;;;6.70;99.90;;;6.57;65.48;95843.41;4979042;28;20509;-54
2022/12/29 04:17:10;;;;;;;20.00;13.97;;;6.70;99.90;;;6.53;65.61;95847.13;4977816;28;20554;-54
2022/12/29 04:19:37;;;;;;;23.50;15.63;;;6.60;99.90;;;6.50;65.42;95851.72;4978916;28;20474;-58
2022/12/29 04:22:03;;;;;;;23.07;15.87;;;6.60;99.90;;;6.46;65.88;95848.44;4977739;28;20590;-56
2022/12/29 04:24:32;;;;;;;21.23;15.00;;;6.60;99.90;;;6.44;65.50;95845.06;4982188;28;20486;-57
2022/12/29 04:26:59;;;;;;;24.03;14.90;;;6.60;99.90;;;6.40;66.13;95857.47;4977336;28;20479;-55
2022/12/29 04:29:26;;;;;;;22.40;15.40;;;6.50;99.90;;;6.37;65.76;95849.00;4978753;28;20897;-56
2022/12/29 04:31:54;;;;;;;29.73;17.17;;;6.50;99.90;;;6.34;66.40;95860.44;4977051;28;20474;-54
2022/12/29 04:34:21;;;;;;;24.57;16.07;;;6.40;99.90;;;6.30;65.61;95860.72;4978351;28;20454;-57
2022/12/29 04:36:48;;;;;;;25.20;15.70;;;6.40;99.90;;;6.26;65.95;95863.50;4976817;28;20470;-55
2022/12/29 04:39:15;;;;;;;22.40;15.27;;;6.40;99.90;;;6.26;66.03;95865.28;4978287;28;20494;-54
2022/12/29 04:41:44;;;;;;;22.97;14.83;;;6.40;99.90;;;6.25;66.48;95864.44;4982380;28;20506;-57
2022/12/29 04:44:11;;;;;;;28.10;14.40;;;6.40;99.90;;;6.25;66.46;95866.22;4979470;28;20491;-54
2022/12/29 04:46:38;;;;;;;24.10;15.80;;;6.40;99.90;;;6.25;65.92;95863.59;4978720;28;20451;-55
2022/12/29 04:49:08;;;;;;;22.90;15.00;;;6.40;99.90;;;6.23;66.06;95873.31;4979138;28;20462;-57
2022/12/29 04:51:35;;;;;;;36.07;17.07;;;6.30;99.90;;;6.22;66.01;95879.44;4985078;28;20994;-56
2022/12/29 04:54:03;;;;;;;33.13;15.23;;;6.30;99.90;;;6.23;66.05;95875.91;4975858;28;20537;-56
2022/12/29 04:56:30;;;;;;;32.53;12.57;;;6.30;99.90;;;6.24;67.65;95881.06;4978822;28;20454;-58
2022/12/29 04:58:59;;;;;;;30.27;16.37;;;6.40;99.90;;;6.32;68.81;95885.84;4980946;28;20490;-58
2022/12/29 05:01:26;;;;;;;32.60;17.17;;;6.40;99.90;;;6.44;70.34;95887.75;4978937;28;20467;-55
2022/12/29 05:03:53;;;;;;;39.87;14.37;;;6.50;99.90;;;6.58;70.05;95892.16;4974719;28;20493;-56
2022/12/29 05:06:21;;;;;;;23.00;15.37;;;6.60;99.90;;;6.72;67.46;95887.88;4979669;28;20450;-57
2022/12/29 05:08:48;;;;;;;26.33;16.13;;;6.70;99.90;;;6.76;67.03;95898.06;4978693;28;20549;-56
2022/12/29 05:11:15;;;;;;;35.53;17.20;;;6.80;99.90;;;6.76;66.35;95892.00;4975109;28;20928;-54
2022/12/29 05:13:45;;;;;;;24.53;15.10;;;6.80;99.90;;;6.76;66.14;95894.59;4976927;28;20991;-57
2022/12/29 05:16:14;;;;;;;21.80;14.80;;;6.80;99.90;;;6.74;66.18;95888.59;4974957;28;20493;-55
2022/12/29 05:18:41;;;;;;;24.37;14.67;;;6.80;99.90;;;6.74;66.03;95880.78;4981590;28;20466;-57
2022/12/29 05:21:08;;;;;;;23.17;14.73;;;6.80;99.90;;;6.73;66.07;95885.16;4978151;28;20454;-56
2022/12/29 05:23:35;;;;;;;26.77;16.13;;;6.80;99.90;;;6.74;66.35;95881.63;4975131;28;20494;-56
2022/12/29 05:26:03;;;;;;;24.47;15.43;;;6.80;99.90;;;6.73;66.14;95882.56;4977220;28;20466;-55
2022/12/29 05:28:30;;;;;;;20.23;14.73;;;6.80;99.90;;;6.74;65.86;95878.16;4975549;28;20549;-55
2022/12/29 05:30:57;;;;;;;25.97;16.20;;;6.80;99.90;;;6.75;65.66;95883.28;4977655;28;20458;-60
2022/12/29 05:33:26;;;;;;;35.67;16.60;;;6.80;99.90;;;6.74;65.84;95876.41;4976542;28;20471;-55
2022/12/29 05:35:53;;;;;;;27.30;16.33;;;6.80;99.90;;;6.77;65.96;95881.44;4977036;28;20508;-57
2022/12/29 05:38:20;;;;;;;22.83;15.17;;;6.80;99.90;;;6.78;65.68;95885.72;4979560;28;21040;-54
2022/12/29 05:40:47;;;;;;;25.10;16.67;;;6.80;99.90;;;6.80;65.68;95883.88;4980186;28;20481;-59
2022/12/29 05:43:15;;;;;;;21.23;14.60;;;6.90;99.90;;;6.82;65.63;95889.84;4979621;28;20494;-60
2022/12/29 05:45:42;;;;;;;27.53;15.83;;;6.90;99.90;;;6.85;65.36;95888.84;4981360;28;20810;-56
2022/12/29 05:48:09;;;;;;;22.67;15.80;;;6.90;99.90;;;6.86;65.66;95887.06;4977808;28;20549;-58
2022/12/29 05:50:38;;;;;;;30.23;16.47;;;6.90;99.90;;;6.87;65.96;95892.19;4984071;28;20511;-57
2022/12/29 05:53:05;;;;;;;29.13;16.30;;;6.90;99.90;;;6.88;65.87;95888.66;4979371;28;20508;-55
2022/12/29 05:55:32;;;;;;;29.33;16.20;;;6.90;99.90;;;6.88;65.76;95896.50;4975095;28;20516;-58
2022/12/29 05:57:59;;;;;;;21.80;15.83;;;6.90;99.90;;;6.88;65.97;95891.25;4976794;28;20472;-58
2022/12/29 06:00:27;;;;;;;37.77;16.50;;;7.00;99.90;;;6.90;65.46;95896.41;4974930;28;20454;-55
2022/12/29 06:02:54;;;;;;;30.77;17.97;;;7.00;99.90;;;6.91;66.31;95905.91;4977560;28;20478;-56
2022/12/29 06:05:21;;;;;;;33.63;20.30;;;7.00;99.90;;;6.92;66.00;95905.00;4976669;28;20470;-56
2022/12/29 06:07:50;;;;;;;30.57;19.33;;;7.00;99.90;;;6.93;66.12;95907.50;4978739;28;20471;-57
2022/12/29 06:10:17;;;;;;;35.43;19.10;;;7.00;99.90;;;6.95;66.17;95908.25;4977309;28;20467;-56
2022/12/29 06:12:44;;;;;;;36.90;22.33;;;7.00;99.90;;;6.96;66.38;95909.13;4976554;28;20472;-57
2022/12/29 06:15:12;;;;;;;41.23;22.57;;;7.00;99.90;;;6.98;65.72;95904.63;4977807;28;20539;-55
2022/12/29 06:17:39;;;;;;;46.20;22.20;;;7.00;99.90;;;7.00;65.76;95902.75;4976087;28;20541;-55
2022/12/29 06:20:09;;;;;;;36.27;19.60;;;7.10;99.90;;;7.05;65.53;95913.78;4977154;28;20458;-56
2022/12/29 06:22:36;;;;;;;30.97;19.80;;;7.10;99.90;;;7.12;65.45;95904.63;4973397;28;20479;-54
2022/12/29 06:25:06;;;;;;;37.40;19.93;;;7.20;99.90;;;7.16;65.34;95908.75;4977269;28;20498;-55
2022/12/29 06:27:33;;;;;;;38.40;19.70;;;7.20;99.90;;;7.17;65.80;95910.44;4979656;28;20502;-58
2022/12/29 06:30:00;;;;;;;39.10;22.20;;;7.20;99.90;;;7.19;65.50;95918.19;4981071;28;20654;-57
2022/12/29 06:32:28;;;;;;;36.00;21.80;;;7.20;99.90;;;7.21;65.86;95913.69;4978254;28;20489;-58
2022/12/29 06:34:55;;;;;;;30.97;20.50;;;7.30;99.90;;;7.37;65.85;95913.59;4979926;28;20450;-55
2022/12/29 06:37:22;;;;;;;34.87;21.87;;;7.40;99.90;;;7.67;65.02;95913.47;4978760;28;20474;-58
2022/12/29 06:39:49;;;;;;;39.63;22.47;;;7.70;99.90;;;8.07;64.35;95910.09;4980070;28;20502;-54
2022/12/29 06:42:18;;;;;;;28.50;20.03;;;8.20;99.90;;;8.48;63.64;95908.38;4985476;28;20528;-56
2022/12/29 06:44:45;;;;;;;41.23;24.00;;;8.50;99.90;;;8.84;62.76;95910.31;4981024;28;20493;-54
2022/12/29 06:47:12;;;;;;;32.87;20.00;;;8.90;99.40;;;9.04;62.02;95913.38;4973666;28;20477;-57
2022/12/29 06:49:40;;;;;;;28.37;20.20;;;9.10;98.70;;;9.24;61.66;95912.03;4979783;28;20454;-59
2022/12/29 06:52:07;;;;;;;32.80;18.73;;;9.30;98.40;;;9.39;60.86;95912.72;4983332;28;20474;-61
2022/12/29 06:54:34;;;;;;;28.00;17.77;;;9.50;97.60;;;9.31;60.33;95918.50;4979231;28;20961;-59
2022/12/29 06:57:01;;;;;;;22.50;16.97;;;9.50;97.30;;;9.18;60.17;95920.31;4980497;28;20501;-55
2022/12/29 06:59:30;;;;;;;25.20;17.80;;;9.30;97.00;;;8.99;60.42;95920.75;4979220;28;20885;-56
2022/12/29 07:01:57;;;;;;;25.37;17.80;;;9.10;97.00;;;8.81;60.71;95923.63;4980306;28;20478;-58
2022/12/29 07:04:25;;;;;;;26.93;18.40;;;9.00;97.20;;;8.66;61.03;95920.28;4978633;28;20560;-59
2022/12/29 07:06:52;;;;;;;25.50;18.27;;;8.80;97.20;;;8.53;61.40;95922.84;4980348;28;21432;-55
2022/12/29 07:09:19;;;;;;;28.80;18.07;;;8.70;97.40;;;8.42;61.86;95925.31;4978048;28;20458;-56
2022/12/29 07:11:46;;;;;;;33.87;19.83;;;8.50;97.50;;;8.31;62.22;95928.63;4980148;28;20537;-57
2022/12/29 07:14:14;;;;;;;32.10;16.73;;;8.40;97.80;;;8.24;61.64;95930.81;4978279;28;20471;-55
2022/12/29 07:16:43;;;;;;;26.67;16.80;;;8.30;97.90;;;8.18;61.88;95931.22;4979435;28;20458;-58
2022/12/29 07:19:10;;;;;;;29.43;17.50;;;8.30;98.10;;;8.16;61.90;95919.16;4978446;28;20851;-58
2022/12/29 07:21:37;;;;;;;24.30;16.80;;;8.20;98.10;;;8.12;62.09;95917.66;4979081;28;20546;-56
2022/12/29 07:24:05;;;;;;;25.40;17.60;;;8.20;98.20;;;8.10;62.63;95914.28;4980909;28;20553;-56
2022/12/29 07:26:33;;;;;;;26.40;16.60;;;8.10;98.20;;;8.07;62.40;95923.19;4978643;28;20456;-59
2022/12/29 07:29:01;;;;;;;30.30;16.40;;;8.10;98.30;;;8.07;62.57;95923.19;4977876;28;20467;-58
2022/12/29 07:31:29;;;;;;;31.23;17.23;;;8.10;98.40;;;8.08;62.44;95927.50;4978128;28;20550;-55
2022/12/29 07:33:57;;;;;;;29.13;17.77;;;8.10;98.40;;;8.10;62.08;95923.00;4976981;28;20859;-59
2022/12/29 07:36:25;;;;;;;24.50;14.87;;;8.10;98.50;;;8.13;62.65;95914.94;4978637;28;20899;-56
2022/12/29 07:38:52;;;;;;;24.80;17.17;;;8.10;98.50;;;8.16;62.45;95925.22;4978918;28;20468;-53
2022/12/29 07:41:19;;;;;;;21.63;14.93;;;8.20;98.50;;;8.19;62.15;95925.00;4978152;28;20574;-58
2022/12/29 07:43:48;;;;;;;21.37;14.10;;;8.20;98.40;;;8.22;62.55;95924.81;4983462;28;20482;-58
2022/12/29 07:46:15;;;;;;;23.00;14.47;;;8.30;98.40;;;8.24;62.10;95928.19;4978115;28;20459;-55
2022/12/29 07:48:43;;;;;;;30.10;14.83;;;8.30;98.40;;;8.25;61.92;95934.28;4979165;28;20482;-58
2022/12/29 07:51:11;;;;;;;24.27;14.53;;;8.30;98.30;;;8.26;62.04;95926.31;4981554;28;20450;-54
2022/12/29 07:53:39;;;;;;;23.73;14.87;;;8.30;98.30;;;8.28;62.27;95926.22;4979006;28;20474;-54
2022/12/29 07:56:07;;;;;;;20.67;13.80;;;8.30;98.30;;;8.33;61.96;95925.91;4977790;28;20549;-56
2022/12/29 07:58:34;;;;;;;26.93;15.50;;;8.30;98.30;;;8.37;62.22;95930.03;4975648;28;20546;-57
2022/12/29 08:01:01;;;;;;;25.47;15.80;;;8.40;98.30;;;8.40;62.06;95938.53;4977332;28;20971;-52
2022/12/29 08:03:28;;;;;;;21.97;15.83;;;8.40;98.10;;;8.40;61.59;95927.22;4979278;28;20474;-56
2022/12/29 08:05:56;;;;;;;23.87;14.03;;;8.40;98.00;;;8.40;61.94;95940.31;4977580;28;20990;-56
2022/12/29 08:08:25;;;;;;;25.47;16.13;;;8.40;98.50;;;8.38;61.77;95943.03;4979158;28;20486;-56
2022/12/29 08:10:52;;;;;;;26.03;15.37;;;8.40;98.30;;;8.41;62.20;95942.84;4977363;28;20489;-55
2022/12/29 08:13:19;;;;;;;21.63;14.90;;;8.40;98.20;;;8.45;61.78;95930.38;4979230;28;20471;-54
2022/12/29 08:15:46;;;;;;;26.43;16.67;;;8.50;98.20;;;8.51;61.60;95930.00;4977255;28;20840;-59
2022/12/29 08:18:14;;;;;;;28.63;18.13;;;8.50;98.10;;;8.57;61.90;95926.13;4978362;28;20479;-56
2022/12/29 08:20:41;;;;;;;27.50;17.33;;;8.60;98.00;;;8.66;61.47;95935.16;4973007;28;20462;-59
2022/12/29 08:23:08;;;;;;;26.33;18.13;;;8.70;97.90;;;8.76;61.40;95936.22;4977919;28;20586;-54
2022/12/29 08:25:37;;;;;;;28.63;17.53;;;8.80;97.80;;;8.91;61.29;95927.34;4975968;28;20490;-58
2022/12/29 08:28:04;;;;;;;25.40;17.57;;;8.90;97.80;;;9.13;60.94;95929.34;4975792;28;20874;-58
2022/12/29 08:30:31;;;;;;;36.67;19.17;;;9.00;97.70;;;9.35;60.51;95930.50;4978165;28;20459;-56
2022/12/29 08:32:59;;;;;;;30.10;20.00;;;9.30;97.30;;;9.60;59.98;95934.88;4976245;28;20558;-58
2022/12/29 08:35:26;;;;;;;33.73;19.43;;;9.50;97.20;;;9.79;59.68;95933.56;4977959;28;20451;-55
2022/12/29 08:37:53;;;;;;;33.07;18.43;;;9.70;96.90;;;9.98;59.08;95933.13;4976014;28;20480;-54
2022/12/29 08:40:20;;;;;;;35.27;18.40;;;9.90;96.70;;;10.15;59.34;95935.38;4981415;28;20455;-55
2022/12/29 08:42:49;;;;;;;37.33;18.93;;;10.10;96.00;;;10.30;58.95;95936.06;4982037;28;20486;-57
2022/12/29 08:45:17;;;;;;;33.13;17.87;;;10.20;95.80;;;10.39;58.31;95939.81;4976277;28;20491;-54
2022/12/29 08:47:44;;;;;;;34.60;19.33;;;10.30;95.20;;;10.44;57.63;95939.47;4975986;28;20475;-58
2022/12/29 08:50:11;;;;;;;34.43;19.93;;;10.40;94.70;;;10.42;57.90;95936.13;4980374;28;20517;-58
2022/12/29 08:52:38;;;;;;;40.77;20.23;;;10.40;94.70;;;10.43;58.02;95935.19;4975428;28;20483;-57
2022/12/29 08:55:07;;;;;;;34.40;20.60;;;10.40;94.70;;;10.46;57.69;95927.06;4979187;28;20465;-58
2022/12/29 08:57:34;;;;;;;31.43;19.33;;;10.40;94.70;;;10.52;57.72;95929.25;4976343;28;20476;-58
2022/12/29 09:00:03;;;;;;;38.93;21.17;;;10.40;94.50;;;10.58;57.50;95928.78;4978998;28;20836;-57
2022/12/29 09:02:31;;;;;;;26.13;18.50;;;10.50;94.80;;;10.66;57.52;95926.44;4976757;28;21074;-59
2022/12/29 09:04:58;;;;;;;28.53;17.33;;;10.60;94.50;;;10.79;57.17;95922.88;4978114;28;20494;-58
2022/12/29 09:07:26;;;;;;;29.83;17.33;;;10.70;94.30;;;11.00;56.90;95926.53;4979328;28;20471;-58
2022/12/29 09:09:53;;;;;;;29.47;18.87;;;10.90;94.20;;;11.22;56.46;95909.09;4977403;28;20467;-59
2022/12/29 09:12:21;;;;;;;29.37;19.00;;;11.10;93.70;;;11.41;55.92;95908.50;4976222;28;21007;-57
2022/12/29 09:14:48;;;;;;;30.20;19.20;;;11.30;93.50;;;11.64;55.78;95904.06;4979680;28;20443;-58
2022/12/29 09:20:02;;;;;;;28.97;17.57;;;11.70;92.60;;;12.02;54.80;95898.44;4977835;28;20446;-55
2022/12/29 09:22:29;;;;;;;28.33;17.87;;;11.90;92.40;;;12.17;54.39;95906.88;4981965;28;20553;-59
2022/12/29 09:24:56;;;;;;;27.70;16.70;;;12.00;92.00;;;12.29;54.02;95902.41;4976496;28;20592;-55
2022/12/29 09:27:24;;;;;;;28.47;17.90;;;12.20;91.70;;;12.40;53.17;95901.53;4977801;28;21102;-58
2022/12/29 09:29:51;;;;;;;26.57;17.90;;;12.30;91.00;;;12.44;53.28;95897.69;4976286;28;20794;-55
2022/12/29 09:32:20;;;;;;;28.47;16.97;;;12.30;90.60;;;12.50;53.81;95896.34;4976721;28;20483;-57
2022/12/29 09:34:47;;;;;;;29.93;17.87;;;12.40;91.00;;;12.57;53.53;95894.88;4971264;28;20976;-56
2022/12/29 09:37:14;;;;;;;40.73;17.80;;;12.50;91.00;;;12.63;53.20;95881.19;4976547;28;21019;-56
2022/12/29 09:39:41;;;;;;;29.10;17.70;;;12.50;90.40;;;12.67;53.24;95884.38;4975725;28;20450;-59
2022/12/29 09:42:13;;;;;;;28.37;18.67;;;12.60;90.30;;;12.74;52.93;95888.22;4982753;28;21077;-53
2022/12/29 09:44:57;;;;;;;35.80;18.60;;;12.60;90.30;;;12.81;52.31;95873.53;4977689;28;21052;-55
2022/12/29 09:47:25;;;;;;;25.97;17.27;;;12.70;89.90;;;12.84;51.98;95875.91;4969997;28;20466;-55
2022/12/29 09:49:55;;;;;;;29.17;19.07;;;12.80;88.50;;;12.86;52.54;95875.78;4974266;28;20900;-58
2022/12/29 09:52:25;;;;;;;32.40;16.80;;;12.80;89.50;;;12.91;52.44;95869.13;4980677;28;20467;-55
2022/12/29 09:54:54;;;;;;;27.27;16.63;;;12.80;89.00;;;13.04;52.28;95866.31;4976266;28;20544;-58
2022/12/29 09:57:24;;;;;;;27.90;17.93;;;12.90;89.00;;;13.16;51.00;95860.94;4977616;28;20487;-59
2022/12/29 09:59:55;;;;;;;31.40;17.40;;;13.00;86.50;;;13.25;51.60;95860.16;4976156;28;20455;-58
2022/12/29 10:02:32;;;;;;;30.77;19.57;;;13.10;87.40;;;13.40;51.43;95860.66;4981417;28;20478;-59
2022/12/29 10:05:00;;;;;;;34.10;18.70;;;13.20;87.30;;;13.51;50.66;95857.94;4979318;28;20544;-56
2022/12/29 10:07:36;;;;;;;27.57;16.87;;;13.40;85.40;;;13.67;50.52;95854.78;4981632;28;20470;-55
2022/12/29 10:10:15;;;;;;;31.53;17.40;;;13.50;85.60;;;13.80;50.36;95854.53;4980534;28;20453;-59
2022/12/29 10:12:58;;;;;;;27.07;17.53;;;13.60;85.10;;;13.93;49.71;95849.84;4983001;28;20477;-57
2022/12/29 10:15:39;;;;;;;24.77;16.97;;;13.80;83.80;;;14.09;50.15;95859.06;4975226;28;20454;-58
2022/12/29 10:18:19;;;;;;;26.87;17.30;;;13.90;84.70;;;14.13;49.25;95844.59;4977832;28;20479;-59
2022/12/29 10:20:50;;;;;;;23.40;16.60;;;14.00;82.70;;;14.06;49.71;95838.16;4977232;28;20524;-57
2022/12/29 10:23:27;;;;;;;25.50;17.40;;;14.00;82.00;;;13.93;49.27;95843.72;4981015;28;20479;-60
2022/12/29 10:25:55;;;;;;;27.07;17.00;;;13.80;81.60;;;13.81;49.73;95841.19;4979868;28;20504;-58
2022/12/29 10:28:23;;;;;;;23.23;15.83;;;13.80;82.00;;;13.70;50.00;95836.00;4978679;28;20851;-55
2022/12/29 10:30:52;;;;;;;35.20;17.27;;;13.60;81.90;;;13.57;49.81;95838.91;4978881;28;20462;-59
2022/12/29 10:33:23;;;;;;;27.70;16.00;;;13.50;81.60;;;13.46;50.02;95831.06;4974770;28;20479;-58
2022/12/29 10:35:50;;;;;;;31.53;16.50;;;13.40;81.90;;;13.34;49.80;95826.84;4977861;28;20452;-56
2022/12/29 10:38:30;;;;;;;32.97;16.33;;;13.30;81.10;;;13.24;50.44;95822.31;4979614;28;20491;-63
2022/12/29 10:41:01;;;;;;;25.37;15.67;;;13.20;81.90;;;13.22;50.72;95823.44;4977867;28;20447;-60
2022/12/29 10:43:31;;;;;;;21.70;15.33;;;13.10;82.30;;;13.23;50.91;95811.88;4981472;28;20491;-54
2022/12/29 10:46:00;;;;;;;24.33;16.13;;;13.10;82.60;;;13.36;50.58;95819.63;4978212;28;20479;-53
2022/12/29 10:48:30;;;;;;;26.93;17.43;;;13.20;82.50;;;13.58;50.40;95813.28;4979161;28;20479;-56
2022/12/29 10:50:59;;;;;;;23.83;15.93;;;13.40;83.10;;;13.79;49.99;95811.41;4981176;28;20451;-55
2022/12/29 10:53:33;;;;;;;28.17;16.00;;;13.60;82.40;;;13.96;49.63;95807.25;4979111;28;20549;-55
2022/12/29 10:56:01;;;;;;;28.60;16.70;;;13.80;81.80;;;14.11;49.66;95806.84;4974618;28;20506;-56
2022/12/29 10:58:28;;;;;;;23.10;15.23;;;13.90;81.50;;;14.34;49.36;95807.41;4979477;28;20478;-56
2022/12/29 11:00:56;;;;;;;28.83;18.03;;;14.10;80.70;;;14.65;48.59;95802.78;4978285;28;20455;-56
2022/12/29 11:03:45;;;;;;;24.90;15.97;;;14.40;80.20;;;15.03;46.64;95793.09;4979748;28;20493;-59